Time;durP1;ratioP1;P1;durP2;ratioP2;P2;SDS_P1;SDS_P2;PMS_P1;PMS_P2;Temp;Humidity;BMP_temperature;BMP_pressure;BME280_temperature;BME280_humidity;BME280_pressure;Samples;Min_cycle;Max_cycle;Signal;HPM_P1;HPM_P2
2023/09/13 00:00:36;;;;;;;19.10;16.37;;;;;;;15.96;100.00;97469.41;6200906;28;20767;-56
2023/09/13 00:03:39;;;;;;;18.47;16.77;;;;;;;15.91;100.00;97471.31;6220728;28;20662;-55
2023/09/13 00:06:42;;;;;;;16.53;14.97;;;;;;;15.81;100.00;97460.66;6219350;28;20235;-56
2023/09/13 00:09:45;;;;;;;15.43;13.93;;;;;;;15.85;100.00;97456.31;6220337;28;20267;-56
2023/09/13 00:12:48;;;;;;;14.70;13.40;;;;;;;15.98;100.00;97471.81;6219713;28;20978;-56
2023/09/13 00:15:50;;;;;;;16.00;14.60;;;;;;;15.99;100.00;97468.03;6233018;28;20224;-56
2023/09/13 00:18:52;;;;;;;15.67;14.17;;;;;;;15.99;100.00;97479.56;6238031;28;20232;-56
2023/09/13 00:21:54;;;;;;;15.83;14.33;;;;;;;15.83;100.00;97450.44;6202676;28;20264;-55
2023/09/13 00:24:58;;;;;;;13.97;12.77;;;;;;;15.92;100.00;97473.72;6218552;28;20235;-56
2023/09/13 00:28:02;;;;;;;16.93;15.13;;;;;;;15.86;100.00;97479.41;6216525;28;20225;-57
2023/09/13 00:31:09;;;;;;;16.63;15.03;;;;;;;15.82;100.00;97478.38;6220543;28;20314;-57
2023/09/13 00:34:11;;;;;;;16.80;15.20;;;;;;;15.78;100.00;97480.03;6202763;28;20637;-56
2023/09/13 00:37:13;;;;;;;16.70;15.13;;;;;;;15.71;100.00;97491.91;6218733;28;20224;-56
2023/09/13 00:40:16;;;;;;;17.33;15.73;;;;;;;15.66;100.00;97489.25;6220710;28;20239;-56
2023/09/13 00:43:18;;;;;;;16.90;15.40;;;;;;;15.64;100.00;97488.69;6220323;28;20749;-56
2023/09/13 00:46:20;;;;;;;15.67;14.20;;;;;;;15.66;100.00;97496.47;6201141;28;20619;-55
2023/09/13 00:49:23;;;;;;;14.80;13.53;;;;;;;15.66;100.00;97491.94;6221629;28;20243;-56
2023/09/13 00:52:25;;;;;;;16.40;14.97;;;;;;;15.70;100.00;97492.16;6220301;28;20614;-56
2023/09/13 00:55:27;;;;;;;15.47;14.07;;;;;;;15.71;100.00;97494.56;6218241;28;20236;-56
2023/09/13 00:58:31;;;;;;;15.80;14.30;;;;;;;15.72;100.00;97492.69;6200806;28;20230;-57
2023/09/13 01:01:34;;;;;;;14.37;13.13;;;;;;;15.74;100.00;97487.81;6200196;28;20410;-56
2023/09/13 01:04:38;;;;;;;15.57;14.07;;;;;;;15.72;100.00;97488.13;6218441;28;20322;-56
2023/09/13 01:07:42;;;;;;;15.63;14.10;;;;;;;15.71;100.00;97497.25;6219340;28;20225;-56
2023/09/13 01:10:44;;;;;;;15.23;13.93;;;;;;;15.71;100.00;97491.91;6216364;28;20719;-57
2023/09/13 01:13:46;;;;;;;16.93;15.43;;;;;;;15.68;100.00;97494.31;6219786;28;20235;-56
2023/09/13 01:17:16;;;;;;;17.53;15.73;;;;;;;15.53;100.00;97479.09;6217131;28;20631;-56
2023/09/13 01:20:50;;;;;;;17.03;15.20;;;;;;;15.51;100.00;97488.47;6222088;28;20236;-56
2023/09/13 01:24:05;;;;;;;16.13;14.63;;;;;;;15.47;100.00;97482.88;6214323;28;20232;-56
2023/09/13 01:27:22;;;;;;;17.30;15.70;;;;;;;15.25;100.00;97456.44;6197985;28;20695;-57
2023/09/13 01:30:28;;;;;;;17.70;15.80;;;;;;;15.44;100.00;97478.06;6215835;28;20772;-56
2023/09/13 01:33:30;;;;;;;17.30;15.50;;;;;;;15.41;100.00;97476.72;6201293;28;20369;-57
2023/09/13 01:36:32;;;;;;;18.00;16.27;;;;;;;15.36;100.00;97476.75;6220097;28;20597;-56
2023/09/13 01:39:34;;;;;;;19.13;17.23;;;;;;;15.41;100.00;97483.97;6216848;28;20903;-57
2023/09/13 01:42:38;;;;;;;18.70;17.00;;;;;;;15.28;100.00;97468.50;6199643;28;20231;-57
2023/09/13 01:45:41;;;;;;;19.27;17.47;;;;;;;15.33;100.00;97476.53;6200875;28;20233;-56
2023/09/13 01:48:44;;;;;;;19.27;17.47;;;;;;;15.30;100.00;97472.50;6201681;28;20235;-56
2023/09/13 01:51:48;;;;;;;20.00;18.20;;;;;;;15.33;100.00;97474.66;6199411;28;20242;-56
2023/09/13 01:54:54;;;;;;;20.50;18.37;;;;;;;15.23;100.00;97458.59;6201504;28;20366;-56
2023/09/13 01:57:59;;;;;;;20.03;18.13;;;;;;;15.26;100.00;97463.41;6199005;28;20711;-56
2023/09/13 02:01:02;;;;;;;19.20;17.30;;;;;;;15.25;100.00;97461.78;6216099;28;20730;-56
2023/09/13 02:04:05;;;;;;;18.90;17.20;;;;;;;15.22;100.00;97465.84;6221510;28;20289;-55
2023/09/13 02:07:08;;;;;;;20.77;18.60;;;;;;;15.22;100.00;97465.84;6215323;28;20327;-56
2023/09/13 02:10:10;;;;;;;18.40;16.73;;;;;;;15.16;100.00;97474.97;6201851;28;20236;-56
2023/09/13 02:13:12;;;;;;;18.87;17.17;;;;;;;15.14;100.00;97471.00;6217984;28;20259;-56
2023/09/13 02:16:20;;;;;;;18.57;16.77;;;;;;;15.10;100.00;97468.03;6218189;28;20239;-55
2023/09/13 02:19:23;;;;;;;19.50;17.43;;;;;;;15.07;100.00;97471.25;6215536;28;20271;-57
2023/09/13 02:22:26;;;;;;;19.20;17.50;;;;;;;15.06;100.00;97468.88;6213064;28;20223;-56
2023/09/13 02:25:28;;;;;;;20.80;18.87;;;;;;;15.09;100.00;97476.38;6198721;28;20231;-57
2023/09/13 02:28:30;;;;;;;20.10;18.10;;;;;;;15.04;100.00;97453.06;6217917;28;20701;-57
2023/09/13 02:31:32;;;;;;;19.17;17.30;;;;;;;15.11;100.00;97468.84;6220506;28;20238;-55
2023/09/13 02:34:35;;;;;;;19.07;17.23;;;;;;;15.12;100.00;97471.28;6198936;28;20236;-56
2023/09/13 02:37:37;;;;;;;19.03;17.43;;;;;;;15.10;100.00;97475.28;6200486;28;20342;-56
2023/09/13 02:40:39;;;;;;;18.80;16.97;;;;;;;15.11;100.00;97469.66;6197681;28;20702;-54
2023/09/13 02:43:42;;;;;;;18.00;16.30;;;;;;;15.09;100.00;97476.38;6217898;28;20231;-57
2023/09/13 02:46:44;;;;;;;17.73;16.13;;;;;;;14.93;100.00;97452.31;6215587;28;20233;-56
2023/09/13 02:49:46;;;;;;;17.23;15.60;;;;;;;15.02;100.00;97481.22;6217039;28;20235;-55
2023/09/13 02:52:49;;;;;;;17.87;16.13;;;;;;;15.00;100.00;97478.03;6213822;28;20323;-56
2023/09/13 02:55:51;;;;;;;18.60;16.87;;;;;;;15.00;100.00;97473.47;6199388;28;20835;-56
2023/09/13 02:58:53;;;;;;;18.70;17.00;;;;;;;14.98;100.00;97475.63;6183425;28;20230;-56
2023/09/13 03:01:56;;;;;;;17.90;16.20;;;;;;;14.89;100.00;97472.72;6221750;28;20239;-56
2023/09/13 03:04:59;;;;;;;18.13;16.43;;;;;;;14.91;100.00;97477.78;6194448;28;20285;-56
2023/09/13 03:08:01;;;;;;;18.63;16.83;;;;;;;14.88;100.00;97473.78;6238352;28;20249;-56
2023/09/13 03:11:14;;;;;;;18.70;16.97;;;;;;;14.86;100.00;97483.97;6221890;28;20236;-55
2023/09/13 03:14:17;;;;;;;18.87;17.07;;;;;;;14.86;100.00;97483.97;6218152;28;20313;-56
2023/09/13 03:17:19;;;;;;;19.23;17.43;;;;;;;14.83;100.00;97483.75;6235112;28;20314;-55
2023/09/13 03:20:22;;;;;;;19.43;17.53;;;;;;;14.83;100.00;97481.84;6210607;28;20242;-60
2023/09/13 03:23:24;;;;;;;18.63;16.83;;;;;;;14.77;100.00;97477.56;6236007;28;20231;-57
2023/09/13 03:26:26;;;;;;;17.70;15.90;;;;;;;14.70;100.00;97466.34;6222173;28;20224;-57
2023/09/13 03:29:29;;;;;;;18.57;16.83;;;;;;;14.80;100.00;97489.63;6219415;28;20247;-55
2023/09/13 03:32:32;;;;;;;17.83;15.93;;;;;;;14.76;100.00;97483.22;6223182;28;20717;-56
2023/09/13 03:35:34;;;;;;;18.33;16.53;;;;;;;14.75;100.00;97477.03;6203683;28;20243;-56
2023/09/13 03:38:38;;;;;;;19.73;17.73;;;;;;;14.70;100.00;97474.38;6202775;28;20260;-55
2023/09/13 03:41:41;;;;;;;17.73;15.83;;;;;;;14.75;100.00;97481.59;6203105;28;20318;-56
2023/09/13 03:44:43;;;;;;;17.20;15.67;;;;;;;14.69;100.00;97484.31;6221104;28;20232;-56
2023/09/13 03:47:46;;;;;;;17.63;16.03;;;;;;;14.74;100.00;97480.81;6204740;28;20314;-56
2023/09/13 03:50:49;;;;;;;18.20;16.50;;;;;;;14.73;100.00;97478.38;6205500;28;20224;-55
2023/09/13 03:53:52;;;;;;;16.97;15.33;;;;;;;14.70;100.00;97475.19;6201717;28;20747;-56
2023/09/13 03:56:54;;;;;;;17.80;16.10;;;;;;;14.73;100.00;97473.00;6219457;28;20239;-56
2023/09/13 03:59:57;;;;;;;17.13;15.53;;;;;;;14.74;100.00;97464.72;6232401;28;20249;-56
2023/09/13 04:02:59;;;;;;;17.20;15.57;;;;;;;14.74;100.00;97466.59;6219766;28;20313;-55
2023/09/13 04:06:02;;;;;;;16.03;14.53;;;;;;;14.72;100.00;97466.84;6223253;28;20231;-56
2023/09/13 04:09:04;;;;;;;15.93;14.37;;;;;;;14.68;100.00;97468.50;6215003;28;20326;-56
2023/09/13 04:12:07;;;;;;;17.30;15.60;;;;;;;14.65;100.00;97467.16;6218429;28;20235;-54
2023/09/13 04:15:09;;;;;;;16.13;14.60;;;;;;;14.63;100.00;97472.00;6220290;28;20212;-56
2023/09/13 04:18:12;;;;;;;15.23;13.63;;;;;;;14.56;100.00;97455.38;6199513;28;20222;-55
2023/09/13 04:21:15;;;;;;;15.10;13.70;;;;;;;14.68;100.00;97477.34;6224765;28;20274;-56
2023/09/13 04:24:17;;;;;;;16.30;14.70;;;;;;;14.68;100.00;97471.19;6221349;28;20302;-56
2023/09/13 04:27:23;;;;;;;14.40;12.90;;;;;;;14.68;100.00;97477.34;6201284;28;20869;-56
2023/09/13 04:30:26;;;;;;;13.50;12.30;;;;;;;14.68;100.00;97474.66;6217028;28;20260;-56
2023/09/13 04:33:51;;;;;;;13.83;12.53;;;;;;;14.69;100.00;97472.78;6221513;28;20705;-55
2023/09/13 04:36:59;;;;;;;15.07;13.03;;;;;;;14.62;100.00;97478.41;6185836;28;20231;-56
2023/09/13 04:40:06;;;;;;;16.50;13.50;;;;;;;14.56;100.00;97479.50;6218578;28;20243;-56
2023/09/13 04:43:08;;;;;;;15.33;13.63;;;;;;;14.58;100.00;97485.41;6198549;28;20235;-56
2023/09/13 04:46:12;;;;;;;15.37;13.77;;;;;;;14.57;100.00;97491.03;6174524;28;20236;-56
2023/09/13 04:49:14;;;;;;;17.77;14.47;;;;;;;14.58;100.00;97488.09;6202868;28;20244;-55
2023/09/13 04:52:17;;;;;;;15.70;14.17;;;;;;;14.60;100.00;97490.50;6220440;28;20270;-55
2023/09/13 04:55:20;;;;;;;14.93;13.53;;;;;;;14.61;100.00;97492.91;6200735;28;20321;-55
2023/09/13 04:58:24;;;;;;;14.60;13.20;;;;;;;14.62;100.00;97510.59;6233495;28;20283;-56
2023/09/13 05:01:28;;;;;;;15.13;13.23;;;;;;;14.66;100.00;97514.34;6220004;28;20271;-56
2023/09/13 05:04:32;;;;;;;15.57;13.97;;;;;;;14.71;100.00;97510.84;6198038;28;20235;-56
2023/09/13 05:07:34;;;;;;;15.03;13.43;;;;;;;14.72;100.00;97509.75;6217942;28;20322;-56
2023/09/13 05:10:39;;;;;;;21.93;19.63;;;;;;;14.61;100.00;97492.09;6217153;28;20319;-56
2023/09/13 05:13:41;;;;;;;14.47;13.17;;;;;;;14.79;100.00;97514.84;6212395;28;20604;-55
2023/09/13 05:17:04;;;;;;;14.50;13.10;;;;;;;14.79;100.00;97528.25;6213931;28;20277;-55
2023/09/13 05:20:19;;;;;;;13.77;12.47;;;;;;;14.71;100.00;97516.19;6215571;28;20239;-57
2023/09/13 05:23:25;;;;;;;14.33;12.93;;;;;;;14.92;100.00;97535.72;6214798;28;20259;-56
2023/09/13 05:26:28;;;;;;;14.17;12.87;;;;;;;15.00;100.00;97531.69;6214606;28;20236;-57
2023/09/13 05:29:31;;;;;;;14.80;13.20;;;;;;;15.04;100.00;97528.19;6217568;28;20235;-55
2023/09/13 05:32:34;;;;;;;14.63;13.10;;;;;;;15.09;100.00;97522.78;6218974;28;20259;-56
2023/09/13 05:35:36;;;;;;;14.50;13.17;;;;;;;15.15;100.00;97534.31;6216346;28;20258;-56
2023/09/13 05:38:39;;;;;;;15.47;13.97;;;;;;;15.21;100.00;97538.56;6228770;28;20232;-56
2023/09/13 05:41:42;;;;;;;16.17;14.53;;;;;;;15.26;100.00;97537.75;6218930;28;20717;-55
2023/09/13 05:44:45;;;;;;;16.60;14.93;;;;;;;15.35;100.00;97539.56;6216743;28;20236;-55
2023/09/13 05:47:52;;;;;;;14.20;12.80;;;;;;;15.46;100.00;97546.50;6217975;28;20235;-56
2023/09/13 05:50:57;;;;;;;14.47;12.97;;;;;;;15.56;100.00;97553.69;6233986;28;20232;-57
2023/09/13 05:53:59;;;;;;;15.37;13.80;;;;;;;15.65;100.00;97552.06;6227683;28;20227;-58
2023/09/13 05:57:02;;;;;;;14.23;12.93;;;;;;;15.74;100.00;97552.28;6215672;28;20235;-51
2023/09/13 06:00:05;;;;;;;16.33;14.73;;;;;;;15.86;100.00;97560.00;6216915;28;20568;-49
2023/09/13 06:03:12;;;;;;;15.27;13.87;;;;;;;15.92;100.00;97559.69;6212975;28;20223;-50
2023/09/13 06:06:14;;;;;;;16.30;14.63;;;;;;;16.00;100.00;97555.59;6219132;28;20223;-48
2023/09/13 06:09:21;;;;;;;14.80;13.27;;;;;;;16.06;100.00;97556.38;6216344;28;20232;-52
2023/09/13 06:12:24;;;;;;;15.40;13.80;;;;;;;16.11;100.00;97559.03;6217445;28;20227;-49
2023/09/13 06:15:26;;;;;;;13.57;12.37;;;;;;;16.17;100.00;97565.97;6215459;28;20227;-51
2023/09/13 06:18:29;;;;;;;15.80;13.93;;;;;;;16.14;100.00;97564.63;6215269;28;20303;-51
2023/09/13 06:21:31;;;;;;;14.40;13.00;;;;;;;16.22;100.00;97572.13;6214251;28;20277;-50
2023/09/13 06:24:34;;;;;;;14.67;13.37;;;;;;;16.24;100.00;97569.94;6223339;28;20231;-52
2023/09/13 06:27:37;;;;;;;15.27;13.87;;;;;;;16.29;100.00;97576.34;6217026;28;20227;-50
2023/09/13 06:30:39;;;;;;;14.70;13.33;;;;;;;16.20;100.00;97560.81;6215672;28;20271;-50
2023/09/13 06:34:03;;;;;;;14.57;13.27;;;;;;;16.37;100.00;97573.06;6215315;28;20717;-51
2023/09/13 06:37:09;;;;;;;14.00;12.70;;;;;;;16.36;100.00;97563.41;6216202;28;20224;-48
2023/09/13 06:40:12;;;;;;;13.70;12.30;;;;;;;16.45;100.00;97575.13;6235195;28;20240;-56
2023/09/13 06:43:15;;;;;;;14.00;12.57;;;;;;;16.49;100.00;97571.59;6216902;28;20232;-52
2023/09/13 06:46:33;;;;;;;13.60;12.20;;;;;;;16.51;100.00;97563.28;6215716;28;20839;-51
2023/09/13 06:50:16;;;;;;;15.00;13.60;;;;;;;16.74;100.00;97562.53;6233961;28;20278;-51
2023/09/13 06:53:43;;;;;;;14.03;12.63;;;;;;;16.96;100.00;97555.88;6181131;28;20238;-51
2023/09/13 06:56:50;;;;;;;13.87;12.57;;;;;;;17.17;100.00;97559.91;6180127;28;20710;-53
2023/09/13 06:59:59;;;;;;;13.90;12.60;;;;;;;17.39;100.00;97554.03;6165762;28;20388;-52
2023/09/13 07:03:04;;;;;;;14.30;13.00;;;;;;;17.61;100.00;97558.03;6170692;28;20842;-52
2023/09/13 07:06:12;;;;;;;15.33;13.90;;;;;;;17.78;100.00;97540.31;6173797;28;20217;-51
2023/09/13 07:09:14;;;;;;;14.47;13.17;;;;;;;18.12;100.00;97560.03;6172374;28;20237;-52
2023/09/13 07:12:16;;;;;;;12.57;11.37;;;;;;;18.33;100.00;97576.69;6172679;28;20225;-49
2023/09/13 07:15:18;;;;;;;13.43;12.10;;;;;;;18.51;100.00;97576.63;6172716;28;20252;-50
2023/09/13 07:18:21;;;;;;;13.90;12.27;;;;;;;18.81;100.00;97577.22;6170517;28;21266;-50
2023/09/13 07:21:23;;;;;;;13.03;11.83;;;;;;;19.07;100.00;97572.19;6168314;28;20232;-50
2023/09/13 07:24:25;;;;;;;13.27;11.97;;;;;;;18.97;100.00;97553.47;6172660;28;20682;-51
2023/09/13 07:27:27;;;;;;;12.57;11.27;;;;;;;19.45;100.00;97566.56;6167340;28;20234;-52
2023/09/13 07:30:30;;;;;;;11.77;10.77;;;;;;;19.60;100.00;97571.66;6168681;28;20229;-52
2023/09/13 07:33:32;;;;;;;10.67;9.73;;;;;;;19.93;94.37;97576.91;6167859;28;20225;-51
2023/09/13 07:36:34;;;;;;;9.67;8.77;;;;;;;20.19;92.43;97567.09;6163971;28;20236;-53
2023/09/13 07:39:37;;;;;;;8.57;7.37;;;;;;;20.55;85.33;97575.19;6171393;28;20221;-52
2023/09/13 07:42:39;;;;;;;7.87;6.17;;;;;;;21.10;76.99;97561.28;6170007;28;20225;-51
2023/09/13 07:45:42;;;;;;;7.63;6.03;;;;;;;21.32;78.66;97563.13;6165814;28;20251;-51
2023/09/13 07:48:44;;;;;;;5.50;5.00;;;;;;;21.44;73.92;97570.69;6173407;28;20233;-52
2023/09/13 07:51:46;;;;;;;6.10;5.50;;;;;;;21.56;75.85;97576.28;6203272;28;20623;-50
2023/09/13 07:54:48;;;;;;;6.17;4.93;;;;;;;21.87;71.27;97570.75;6222361;28;20307;-52
2023/09/13 07:57:51;;;;;;;5.90;4.80;;;;;;;21.91;72.47;97579.03;6219724;28;20227;-51
2023/09/13 08:00:53;;;;;;;4.13;3.73;;;;;;;22.64;60.18;97581.91;6219882;28;20223;-51
2023/09/13 08:03:56;;;;;;;5.47;4.47;;;;;;;23.22;57.66;97579.69;6201887;28;20223;-51
2023/09/13 08:06:59;;;;;;;4.53;4.13;;;;;;;23.36;57.71;97567.47;6219875;28;20260;-51
2023/09/13 08:10:03;;;;;;;7.13;4.28;;;;;;;23.56;56.04;97581.44;6225311;28;20286;-49
2023/09/13 08:13:05;;;;;;;5.18;4.22;;;;;;;23.58;58.31;97588.13;6219967;28;20248;-51
2023/09/13 08:16:08;;;;;;;4.85;4.00;;;;;;;23.87;53.58;97572.94;6220073;28;20228;-51
2023/09/13 08:19:13;;;;;;;7.50;4.05;;;;;;;24.09;53.42;97582.72;6203775;28;20228;-51
2023/09/13 08:22:16;;;;;;;4.35;4.03;;;;;;;24.37;53.72;97578.31;6222034;28;20232;-50
2023/09/13 08:25:34;;;;;;;4.32;3.92;;;;;;;24.42;53.22;97583.56;6215469;28;20247;-51
2023/09/13 08:28:36;;;;;;;4.28;3.55;;;;;;;24.48;52.16;97577.91;6220203;28;20705;-54
2023/09/13 08:31:39;;;;;;;3.88;3.22;;;;;;;24.52;52.92;97592.44;6217583;28;20232;-49
2023/09/13 08:34:41;;;;;;;5.65;3.80;;;;;;;24.43;54.07;97576.19;6216236;28;20707;-50
2023/09/13 08:37:55;;;;;;;6.28;3.25;;;;;;;24.29;52.09;97590.06;6200379;28;20281;-50
2023/09/13 08:40:57;;;;;;;3.45;3.15;;;;;;;24.06;53.09;97583.38;6224199;28;20712;-49
2023/09/13 08:44:03;;;;;;;3.80;3.50;;;;;;;24.02;54.92;97590.59;6218449;28;20240;-51
2023/09/13 08:47:08;;;;;;;3.75;3.38;;;;;;;24.38;51.17;97596.28;6215468;28;20831;-52
2023/09/13 08:50:11;;;;;;;4.32;3.40;;;;;;;24.24;52.72;97590.28;6220682;28;20823;-51
2023/09/13 08:53:16;;;;;;;6.35;3.72;;;;;;;24.55;49.63;97584.41;6223558;28;20371;-52
2023/09/13 08:56:22;;;;;;;4.13;3.72;;;;;;;24.59;52.22;97596.22;6220155;28;20235;-52
2023/09/13 08:59:24;;;;;;;4.25;3.60;;;;;;;24.75;50.94;97593.66;6214404;28;20236;-52
2023/09/13 09:02:29;;;;;;;4.05;3.33;;;;;;;24.67;53.17;97589.88;6203263;28;20235;-52
2023/09/13 09:05:32;;;;;;;4.30;3.90;;;;;;;24.95;51.07;97583.81;6217740;28;20319;-52
2023/09/13 09:08:39;;;;;;;4.25;3.67;;;;;;;25.11;49.08;97592.97;6215226;28;20724;-53
2023/09/13 09:11:43;;;;;;;4.18;3.78;;;;;;;25.38;49.96;97588.00;6220912;28;20236;-51
2023/09/13 09:14:46;;;;;;;3.92;3.60;;;;;;;25.38;51.05;97583.34;6216346;28;20243;-51
2023/09/13 09:17:51;;;;;;;4.82;4.15;;;;;;;25.50;48.84;97579.78;6219883;28;20729;-54
2023/09/13 09:20:54;;;;;;;4.40;4.00;;;;;;;25.56;49.39;97580.34;6217836;28;20262;-52
2023/09/13 09:23:57;;;;;;;7.03;3.92;;;;;;;25.77;49.78;97580.28;6218822;28;20232;-51
2023/09/13 09:26:59;;;;;;;3.30;3.00;;;;;;;25.95;45.88;97604.22;6224523;28;20236;-53
2023/09/13 09:30:03;;;;;;;4.88;3.33;;;;;;;25.92;45.35;97599.47;6216529;28;20244;-50
2023/09/13 09:33:06;;;;;;;3.53;3.15;;;;;;;25.88;44.53;97584.13;6218267;28;20227;-51
2023/09/13 09:36:13;;;;;;;3.97;3.40;;;;;;;25.76;46.93;97587.63;6217471;28;20718;-51
2023/09/13 09:39:15;;;;;;;3.45;2.85;;;;;;;25.74;46.61;97592.63;6189496;28;20212;-52
2023/09/13 09:42:18;;;;;;;3.42;3.13;;;;;;;25.74;46.15;97585.22;6205382;28;20216;-51
2023/09/13 09:50:14;;;;;;;5.78;3.10;;;;;;;25.91;45.23;97569.75;6218435;28;20236;-53
2023/09/13 09:53:17;;;;;;;7.80;3.17;;;;;;;26.31;43.08;97574.44;6189179;28;20613;-53
2023/09/13 09:56:21;;;;;;;4.22;2.30;;;;;;;26.11;44.27;97595.34;6193469;28;20233;-52
2023/09/13 09:59:28;;;;;;;2.92;2.72;;;;;;;25.98;45.89;97600.81;6190218;28;20604;-51
2023/09/13 10:02:31;;;;;;;3.92;2.75;;;;;;;25.98;44.66;97598.06;6194662;28;20624;-54
2023/09/13 10:05:49;;;;;;;4.15;2.90;;;;;;;26.04;44.20;97595.91;6195386;28;20232;-51
2023/09/13 10:08:53;;;;;;;3.30;2.83;;;;;;;26.01;44.79;97580.22;6196498;28;20244;-52
2023/09/13 10:11:56;;;;;;;3.83;3.10;;;;;;;26.22;46.38;97597.22;6194955;28;20240;-54
2023/09/13 10:15:03;;;;;;;3.13;2.75;;;;;;;26.47;44.32;97599.91;6191404;28;20233;-54
2023/09/13 10:18:12;;;;;;;3.60;3.15;;;;;;;26.53;44.91;97586.78;6192369;28;20231;-55
2023/09/13 10:21:19;;;;;;;3.30;3.00;;;;;;;26.59;44.61;97596.31;6195284;28;20217;-53
2023/09/13 10:24:24;;;;;;;4.00;3.00;;;;;;;26.67;45.12;97601.63;6191196;28;20240;-51
2023/09/13 10:27:28;;;;;;;3.40;3.10;;;;;;;26.75;41.96;97606.16;6194084;28;20232;-57
2023/09/13 10:30:33;;;;;;;4.80;3.10;;;;;;;26.54;44.17;97589.16;6192948;28;20248;-55
2023/09/13 10:33:37;;;;;;;4.47;3.38;;;;;;;26.80;41.51;97577.75;6191266;28;20240;-54
2023/09/13 10:36:45;;;;;;;4.65;3.30;;;;;;;26.55;44.60;97581.75;6196692;28;20239;-55
2023/09/13 10:40:09;;;;;;;3.20;3.00;;;;;;;26.47;43.89;97581.56;6190786;28;20720;-51
2023/09/13 10:43:13;;;;;;;4.45;3.10;;;;;;;26.43;45.51;97583.41;6197515;28;20611;-52
2023/09/13 10:46:16;;;;;;;3.42;3.13;;;;;;;26.40;44.68;97597.75;6194442;28;20267;-53
2023/09/13 10:49:18;;;;;;;4.32;3.10;;;;;;;26.30;44.67;97581.81;6173595;28;20745;-53
2023/09/13 10:52:21;;;;;;;4.10;3.13;;;;;;;26.20;46.17;97576.84;6212764;28;20243;-51
2023/09/13 10:55:24;;;;;;;5.05;3.40;;;;;;;26.20;45.39;97587.78;6215730;28;20314;-52
2023/09/13 10:58:26;;;;;;;3.85;2.70;;;;;;;26.19;46.57;97589.72;6213367;28;20244;-51
2023/09/13 11:01:30;;;;;;;3.20;2.90;;;;;;;26.19;47.09;97581.53;6216648;28;20233;-54
2023/09/13 11:04:33;;;;;;;3.65;2.95;;;;;;;26.23;45.43;97589.81;6215965;28;20239;-53
2023/09/13 11:07:46;;;;;;;2.75;2.55;;;;;;;26.31;44.62;97594.34;6198493;28;20398;-53
2023/09/13 11:10:49;;;;;;;2.88;2.60;;;;;;;26.40;44.47;97592.28;6216301;28;20239;-53
2023/09/13 11:13:55;;;;;;;5.88;2.97;;;;;;;26.55;44.71;97587.22;6218178;28;20229;-51
2023/09/13 11:17:40;;;;;;;3.78;2.92;;;;;;;26.86;42.99;97591.97;6216908;28;20733;-50
2023/09/13 11:20:43;;;;;;;3.30;3.00;;;;;;;27.09;42.16;97586.72;6215314;28;20804;-54
2023/09/13 11:23:49;;;;;;;3.38;3.08;;;;;;;27.05;43.77;97585.81;6220475;28;20228;-51
2023/09/13 11:26:56;;;;;;;6.60;3.25;;;;;;;27.32;40.33;97604.09;6217436;28;20789;-51
2023/09/13 11:29:59;;;;;;;4.47;3.00;;;;;;;27.20;42.75;97594.06;6222875;28;20724;-51
2023/09/13 11:33:03;;;;;;;5.53;3.80;;;;;;;27.18;43.10;97588.13;6220447;28;20244;-51
2023/09/13 11:36:06;;;;;;;3.55;3.05;;;;;;;27.13;42.98;97588.38;6222803;28;20231;-53
2023/09/13 11:39:09;;;;;;;3.28;3.03;;;;;;;27.08;41.68;97580.44;6203539;28;20242;-53
2023/09/13 11:42:13;;;;;;;4.22;3.25;;;;;;;27.21;41.14;97587.44;6218156;28;20273;-52
2023/09/13 11:45:35;;;;;;;3.70;3.40;;;;;;;27.23;41.47;97581.59;6221443;28;20279;-52
2023/09/13 11:48:41;;;;;;;3.70;3.38;;;;;;;27.24;42.12;97583.19;6221670;28;20235;-52
2023/09/13 11:52:00;;;;;;;4.25;3.65;;;;;;;27.27;40.32;97571.53;6203811;28;20657;-53
2023/09/13 11:55:28;;;;;;;4.28;3.88;;;;;;;27.32;41.19;97575.94;6189852;28;20233;-55
2023/09/13 11:58:39;;;;;;;3.60;3.30;;;;;;;27.34;41.73;97566.25;6194136;28;20233;-53
2023/09/13 12:01:58;;;;;;;8.73;3.83;;;;;;;27.26;42.34;97567.22;6196696;28;20746;-54
2023/09/13 12:05:02;;;;;;;4.38;3.97;;;;;;;27.21;40.89;97567.50;6195203;28;20236;-53
2023/09/13 12:08:23;;;;;;;4.93;4.38;;;;;;;27.21;40.58;97576.50;6195758;28;20237;-53
2023/09/13 12:11:27;;;;;;;4.53;4.13;;;;;;;26.98;41.55;97561.81;6197433;28;20240;-54
2023/09/13 12:14:34;;;;;;;5.55;4.10;;;;;;;26.82;42.71;97555.53;6194959;28;20633;-52
2023/09/13 12:17:40;;;;;;;5.50;4.30;;;;;;;27.03;42.56;97556.06;6191290;28;20260;-54
2023/09/13 12:20:45;;;;;;;4.03;3.72;;;;;;;27.11;42.73;97557.09;6198965;28;20614;-54
2023/09/13 12:23:47;;;;;;;5.35;3.80;;;;;;;27.25;40.63;97543.75;6195741;28;20319;-54
2023/09/13 12:26:53;;;;;;;6.07;4.22;;;;;;;27.44;39.86;97557.50;6188027;28;20262;-54
2023/09/13 12:30:04;;;;;;;7.25;4.22;;;;;;;27.31;41.87;97536.88;6201612;28;20241;-54
2023/09/13 12:34:01;;;;;;;5.05;3.85;;;;;;;27.43;42.52;97552.38;6192881;28;20240;-52
2023/09/13 12:37:38;;;;;;;6.53;4.10;;;;;;;27.46;42.12;97554.41;6192829;28;20313;-54
2023/09/13 12:40:57;;;;;;;4.72;3.97;;;;;;;27.42;43.09;97548.06;6197127;28;20559;-53
2023/09/13 12:44:06;;;;;;;5.70;4.30;;;;;;;27.26;42.68;97546.13;6195603;28;20260;-61
2023/09/13 12:47:09;;;;;;;5.75;3.60;;;;;;;27.11;43.06;97544.19;6194822;28;20244;-61
2023/09/13 12:50:14;;;;;;;4.95;4.20;;;;;;;27.00;43.28;97532.19;6193146;28;20248;-60
2023/09/13 12:53:36;;;;;;;4.85;4.10;;;;;;;26.99;43.89;97538.78;6215198;28;20697;-62
2023/09/13 12:56:39;;;;;;;4.40;3.60;;;;;;;26.94;44.39;97539.03;6219392;28;20235;-60
2023/09/13 12:59:43;;;;;;;3.90;3.53;;;;;;;27.00;43.55;97540.38;6222694;28;20251;-60
2023/09/13 13:02:53;;;;;;;4.20;3.75;;;;;;;27.00;43.85;97523.97;6198282;28;20394;-60
2023/09/13 13:06:09;;;;;;;8.38;4.53;;;;;;;27.07;42.81;97539.75;6220913;28;20232;-61
2023/09/13 13:09:21;;;;;;;6.22;4.43;;;;;;;27.25;41.92;97535.56;6218537;28;20236;-60
2023/09/13 13:12:41;;;;;;;5.95;4.32;;;;;;;27.30;42.66;97527.06;6220042;28;20241;-60
2023/09/13 13:15:50;;;;;;;4.35;3.95;;;;;;;27.34;43.05;97530.69;6233356;28;20189;-60
2023/09/13 13:18:55;;;;;;;6.85;4.30;;;;;;;27.46;42.77;97519.63;6201363;28;20784;-60
2023/09/13 13:21:58;;;;;;;4.93;4.22;;;;;;;27.38;42.46;97534.28;6225189;28;20240;-60
2023/09/13 13:25:06;;;;;;;4.43;3.97;;;;;;;27.49;41.86;97524.41;6207050;28;20262;-61
2023/09/13 13:28:15;;;;;;;4.90;4.40;;;;;;;27.51;40.64;97505.66;6221300;28;20232;-61
2023/09/13 13:31:22;;;;;;;5.65;4.25;;;;;;;27.64;40.33;97521.97;6229653;28;20250;-60
2023/09/13 13:34:29;;;;;;;6.53;3.95;;;;;;;27.80;40.27;97514.53;6218585;28;20330;-61
2023/09/13 13:37:36;;;;;;;4.70;4.25;;;;;;;27.79;41.02;97512.16;6191600;28;20240;-60
2023/09/13 13:41:04;;;;;;;4.50;4.10;;;;;;;27.67;40.46;97521.25;6221050;28;20319;-60
2023/09/13 13:44:12;;;;;;;6.78;5.13;;;;;;;27.66;41.15;97509.50;6217593;28;20782;-60
2023/09/13 13:47:15;;;;;;;6.63;4.63;;;;;;;27.59;41.20;97506.63;6217350;28;20236;-60
2023/09/13 13:50:20;;;;;;;7.05;4.47;;;;;;;27.45;41.87;97490.69;6214117;28;20243;-60
2023/09/13 13:53:26;;;;;;;4.93;4.43;;;;;;;27.37;43.10;97496.34;6215030;28;20285;-61
2023/09/13 13:56:30;;;;;;;4.53;4.13;;;;;;;27.18;43.98;97484.19;6219188;28;20409;-60
2023/09/13 13:59:33;;;;;;;8.10;4.93;;;;;;;27.00;43.67;97486.50;6220221;28;20585;-59
2023/09/13 14:02:36;;;;;;;7.32;4.80;;;;;;;26.99;43.64;97492.31;6220253;28;20243;-60
2023/09/13 14:05:40;;;;;;;5.97;4.70;;;;;;;26.90;43.84;97492.50;6217396;28;20917;-59
2023/09/13 14:08:43;;;;;;;5.93;4.60;;;;;;;26.79;44.74;97487.91;6217623;28;20311;-60
2023/09/13 14:11:46;;;;;;;6.55;4.80;;;;;;;26.83;44.47;97500.50;6217504;28;20239;-59
2023/09/13 14:14:48;;;;;;;5.68;5.18;;;;;;;26.94;44.77;97501.56;6218283;28;20229;-60
2023/09/13 14:17:51;;;;;;;4.55;4.18;;;;;;;26.89;45.20;97493.63;6217030;28;20240;-60
2023/09/13 14:20:53;;;;;;;7.15;4.75;;;;;;;26.84;46.17;97487.63;6218243;28;20615;-59